Time;durP1;ratioP1;P1;durP2;ratioP2;P2;SDS_P1;SDS_P2;PMS_P1;PMS_P2;Temp;Humidity;BMP_temperature;BMP_pressure;BME280_temperature;BME280_humidity;BME280_pressure;Samples;Min_cycle;Max_cycle;Signal;HPM_P1;HPM_P2
2021/01/08 00:00:08;;;;;;;21.60;12.13;;;1.90;99.90;;;;;;5048177;28;20095;-63
2021/01/08 00:02:34;;;;;;;20.63;12.10;;;1.90;99.90;;;;;;5066744;28;20035;-62
2021/01/08 00:05:00;;;;;;;19.45;11.40;;;1.90;99.90;;;;;;5066311;28;20024;-62
2021/01/08 00:07:26;;;;;;;19.73;11.20;;;1.90;99.90;;;;;;5068217;28;20032;-62
2021/01/08 00:09:52;;;;;;;19.33;11.00;;;2.00;99.90;;;;;;5066832;28;20078;-63
2021/01/08 00:12:19;;;;;;;21.50;11.63;;;2.00;99.90;;;;;;5064164;28;20048;-62
2021/01/08 00:14:45;;;;;;;18.75;10.52;;;2.00;99.90;;;;;;5067940;28;20036;-62
2021/01/08 00:17:11;;;;;;;21.70;11.85;;;2.00;99.90;;;;;;5066608;28;20032;-62
2021/01/08 00:19:38;;;;;;;19.63;11.40;;;2.00;99.90;;;;;;5067350;28;20028;-63
2021/01/08 00:22:04;;;;;;;19.05;11.50;;;2.00;99.90;;;;;;5065774;28;20028;-62
2021/01/08 00:24:30;;;;;;;23.77;11.90;;;2.00;99.90;;;;;;5068099;28;20442;-62
2021/01/08 00:27:03;;;;;;;22.23;12.65;;;2.00;99.90;;;;;;5066780;28;20035;-62
2021/01/08 00:29:29;;;;;;;23.95;11.30;;;1.90;99.90;;;;;;5067619;28;20031;-62
2021/01/08 00:31:55;;;;;;;22.05;11.48;;;1.90;99.90;;;;;;5064816;28;20672;-62
2021/01/08 00:34:21;;;;;;;26.35;12.27;;;2.00;99.90;;;;;;5067166;28;20039;-62
2021/01/08 00:36:54;;;;;;;22.20;11.98;;;1.90;99.90;;;;;;5067463;28;20110;-62
2021/01/08 00:39:21;;;;;;;22.33;12.27;;;1.90;99.90;;;;;;5066623;28;20072;-62
2021/01/08 00:41:47;;;;;;;21.17;11.80;;;1.90;99.90;;;;;;5065839;28;20293;-62
2021/01/08 00:44:14;;;;;;;23.70;12.02;;;1.90;99.90;;;;;;5066256;28;20588;-62
2021/01/08 00:46:43;;;;;;;19.95;11.20;;;1.80;99.90;;;;;;5065824;28;20028;-62
2021/01/08 00:49:10;;;;;;;21.85;12.15;;;1.90;99.90;;;;;;5066571;28;20115;-62
2021/01/08 00:51:37;;;;;;;21.20;12.10;;;1.90;99.90;;;;;;5066677;28;20218;-63
2021/01/08 00:54:04;;;;;;;19.25;11.23;;;1.90;99.90;;;;;;5066499;28;20035;-62
2021/01/08 00:56:31;;;;;;;21.90;12.73;;;1.90;99.90;;;;;;5047594;28;20036;-62
2021/01/08 00:58:58;;;;;;;23.45;12.93;;;1.90;99.90;;;;;;5065121;28;20028;-62
2021/01/08 01:01:24;;;;;;;20.45;12.45;;;1.90;99.90;;;;;;5065528;28;20066;-62
2021/01/08 01:03:50;;;;;;;20.08;10.35;;;2.00;99.90;;;;;;5065223;28;20036;-62
2021/01/08 01:06:31;;;;;;;17.80;10.70;;;1.90;99.90;;;;;;5065852;28;20029;-62
2021/01/08 01:08:58;;;;;;;18.73;11.05;;;2.00;99.90;;;;;;5066844;28;20042;-62
2021/01/08 01:11:26;;;;;;;22.10;12.68;;;1.90;99.90;;;;;;5066152;28;20035;-62
2021/01/08 01:13:55;;;;;;;19.30;11.63;;;1.90;99.90;;;;;;5066078;28;20050;-62
2021/01/08 01:16:21;;;;;;;24.40;12.02;;;1.90;99.90;;;;;;5066160;28;20651;-62
2021/01/08 01:18:48;;;;;;;19.23;10.85;;;1.90;99.90;;;;;;5065723;28;20028;-62
2021/01/08 01:21:14;;;;;;;20.10;11.38;;;1.90;99.90;;;;;;5066068;28;20067;-62
2021/01/08 01:23:41;;;;;;;22.00;11.23;;;1.90;99.90;;;;;;5065371;28;20025;-62
2021/01/08 01:26:07;;;;;;;21.08;11.68;;;1.90;99.90;;;;;;5066039;28;20058;-62
2021/01/08 01:28:35;;;;;;;19.75;11.77;;;2.00;99.90;;;;;;5065166;28;20149;-62
2021/01/08 01:31:02;;;;;;;19.42;12.07;;;2.00;99.90;;;;;;5062344;28;20044;-62
2021/01/08 01:33:28;;;;;;;19.70;11.45;;;2.00;99.90;;;;;;5047232;28;20024;-63
2021/01/08 01:35:54;;;;;;;20.38;11.98;;;1.90;99.90;;;;;;5064182;28;20036;-62
2021/01/08 01:38:21;;;;;;;23.35;12.38;;;1.90;99.90;;;;;;5066869;28;20486;-62
2021/01/08 01:40:48;;;;;;;20.30;11.18;;;1.80;99.90;;;;;;5066427;28;20519;-62
2021/01/08 01:43:15;;;;;;;22.33;12.60;;;1.80;99.90;;;;;;5064897;28;20032;-63
2021/01/08 01:45:41;;;;;;;20.73;11.88;;;1.80;99.90;;;;;;5066624;28;20660;-62
2021/01/08 01:48:09;;;;;;;20.95;11.70;;;1.90;99.90;;;;;;5065879;28;20684;-62
2021/01/08 01:50:34;;;;;;;18.08;10.20;;;1.80;99.90;;;;;;5065375;28;20486;-62
2021/01/08 01:53:00;;;;;;;19.55;11.02;;;1.90;99.90;;;;;;5064774;28;20038;-62
2021/01/08 01:55:28;;;;;;;21.38;11.35;;;1.80;99.90;;;;;;5065943;28;20048;-62
2021/01/08 01:57:53;;;;;;;21.45;10.98;;;1.80;99.90;;;;;;5068016;28;20459;-62
2021/01/08 02:00:20;;;;;;;19.63;11.43;;;1.80;99.90;;;;;;5064867;28;20040;-63
2021/01/08 02:03:04;;;;;;;19.98;11.75;;;1.80;99.90;;;;;;5065208;28;20024;-62
2021/01/08 02:05:31;;;;;;;18.77;10.73;;;1.90;99.90;;;;;;5067272;28;20040;-62
2021/01/08 02:08:04;;;;;;;22.17;11.10;;;1.90;99.90;;;;;;5068174;28;20114;-62
2021/01/08 02:10:43;;;;;;;25.70;11.90;;;1.90;99.90;;;;;;5065634;28;20127;-62
2021/01/08 02:13:16;;;;;;;19.77;11.18;;;1.90;99.90;;;;;;5065647;28;20067;-62
2021/01/08 02:15:44;;;;;;;19.95;10.82;;;1.90;99.90;;;;;;5069751;28;20092;-62
2021/01/08 02:18:10;;;;;;;18.52;9.88;;;1.80;99.90;;;;;;5068595;28;20067;-62
2021/01/08 02:20:36;;;;;;;17.48;10.07;;;1.80;99.90;;;;;;5069254;28;20036;-62
2021/01/08 02:23:24;;;;;;;19.17;11.50;;;1.90;99.90;;;;;;5069423;28;20066;-62
2021/01/08 02:25:51;;;;;;;20.38;11.10;;;2.00;99.90;;;;;;5069894;28;20079;-62
2021/01/08 02:28:25;;;;;;;19.60;11.10;;;1.90;99.90;;;;;;5067872;28;20342;-62
2021/01/08 02:30:51;;;;;;;17.58;10.18;;;1.90;99.90;;;;;;5068882;28;20040;-62
2021/01/08 02:33:18;;;;;;;16.42;10.15;;;1.80;99.90;;;;;;5068716;28;20135;-62
2021/01/08 02:35:47;;;;;;;17.15;10.43;;;1.80;99.90;;;;;;5067750;28;20472;-62
2021/01/08 02:38:20;;;;;;;17.10;9.75;;;1.90;99.90;;;;;;5069527;28;20042;-62
2021/01/08 02:40:48;;;;;;;17.85;10.13;;;1.80;99.90;;;;;;5069118;28;20060;-62
2021/01/08 02:43:21;;;;;;;15.82;10.38;;;1.80;99.90;;;;;;5067378;28;20101;-62
2021/01/08 02:45:47;;;;;;;16.77;8.68;;;1.80;99.90;;;;;;5068943;28;20028;-62
2021/01/08 02:48:13;;;;;;;17.02;9.80;;;1.80;99.90;;;;;;5069380;28;20451;-62
2021/01/08 02:50:39;;;;;;;16.08;9.65;;;1.80;99.90;;;;;;5068049;28;20043;-62
2021/01/08 02:53:08;;;;;;;17.95;9.80;;;1.70;99.90;;;;;;5068127;28;20357;-62
2021/01/08 02:55:35;;;;;;;17.15;9.75;;;1.80;99.90;;;;;;5068089;28;20039;-62
2021/01/08 02:58:03;;;;;;;18.25;9.98;;;1.70;99.90;;;;;;5068459;28;20561;-62
2021/01/08 03:00:33;;;;;;;17.85;9.88;;;1.70;99.90;;;;;;5068184;28;20487;-62
2021/01/08 03:03:01;;;;;;;17.20;9.75;;;1.70;99.90;;;;;;5067207;28;20480;-62
2021/01/08 03:05:31;;;;;;;15.43;9.10;;;1.70;99.90;;;;;;5068603;28;20498;-62
2021/01/08 03:07:57;;;;;;;17.70;9.23;;;1.70;99.90;;;;;;5065731;28;20119;-62
2021/01/08 03:10:24;;;;;;;18.70;10.75;;;1.60;99.90;;;;;;5068809;28;20511;-62
2021/01/08 03:13:03;;;;;;;16.83;10.00;;;1.60;99.90;;;;;;5067063;28;20447;-63
2021/01/08 03:15:29;;;;;;;18.83;10.02;;;1.60;99.90;;;;;;5069390;28;20034;-62
2021/01/08 03:17:55;;;;;;;15.82;9.00;;;1.60;99.90;;;;;;5066974;28;20035;-62
2021/01/08 03:20:22;;;;;;;21.73;10.90;;;1.60;99.90;;;;;;5067704;28;20020;-62
2021/01/08 03:22:48;;;;;;;16.48;9.00;;;1.60;99.90;;;;;;5066794;28;20029;-62
2021/01/08 03:25:14;;;;;;;20.15;9.65;;;1.60;99.90;;;;;;5066954;28;20037;-62
2021/01/08 03:27:40;;;;;;;18.10;9.50;;;1.70;99.90;;;;;;5067719;28;20524;-62
2021/01/08 03:30:07;;;;;;;18.15;9.25;;;1.60;99.90;;;;;;5066912;28;20389;-62
2021/01/08 03:32:34;;;;;;;16.88;9.43;;;1.70;99.90;;;;;;5067138;28;20039;-62
2021/01/08 03:34:59;;;;;;;15.98;9.27;;;1.60;99.90;;;;;;5068234;28;20636;-62
2021/01/08 03:37:25;;;;;;;16.83;9.13;;;1.60;99.90;;;;;;5066216;28;20032;-62
2021/01/08 03:39:52;;;;;;;17.05;10.02;;;1.60;99.90;;;;;;5067689;28;20124;-62
2021/01/08 03:42:18;;;;;;;16.23;9.35;;;1.60;99.90;;;;;;5067114;28;20493;-62
2021/01/08 03:44:44;;;;;;;15.95;9.57;;;1.60;99.90;;;;;;5068400;28;20029;-62
2021/01/08 03:47:09;;;;;;;16.02;9.60;;;1.60;99.90;;;;;;5066406;28;21043;-63
2021/01/08 03:49:38;;;;;;;15.00;9.15;;;1.60;99.90;;;;;;5050908;28;20665;-62
2021/01/08 03:52:07;;;;;;;16.13;8.93;;;1.50;99.90;;;;;;5067206;28;20115;-62
2021/01/08 03:54:34;;;;;;;14.13;8.40;;;1.60;99.90;;;;;;5067399;28;20392;-62
2021/01/08 03:57:00;;;;;;;16.42;9.18;;;1.60;99.90;;;;;;5064519;28;20046;-62
2021/01/08 03:59:26;;;;;;;16.10;9.23;;;1.60;99.90;;;;;;5049188;28;20134;-62
2021/01/08 04:01:52;;;;;;;15.60;8.30;;;1.50;99.90;;;;;;5065427;28;20028;-62
2021/01/08 04:04:19;;;;;;;16.15;8.95;;;1.50;99.90;;;;;;5065164;28;20035;-62
2021/01/08 04:06:44;;;;;;;18.40;9.18;;;1.60;99.90;;;;;;5067278;28;20044;-62
2021/01/08 04:09:10;;;;;;;16.48;8.70;;;1.50;99.90;;;;;;5068076;28;20028;-62
2021/01/08 04:11:36;;;;;;;15.85;8.25;;;1.60;99.90;;;;;;5066747;28;20383;-62
2021/01/08 04:14:02;;;;;;;16.13;8.90;;;1.50;99.90;;;;;;5065677;28;20025;-62
2021/01/08 04:16:33;;;;;;;14.25;8.60;;;1.50;99.90;;;;;;5066079;28;20555;-62
2021/01/08 04:18:58;;;;;;;15.48;8.82;;;1.60;99.90;;;;;;5067307;28;20020;-62
2021/01/08 04:21:24;;;;;;;13.18;8.10;;;1.50;99.90;;;;;;5067025;28;20211;-62
2021/01/08 04:23:50;;;;;;;16.00;9.00;;;1.60;99.90;;;;;;5066607;28;20063;-62
2021/01/08 04:26:16;;;;;;;14.77;8.35;;;1.60;99.90;;;;;;5067452;28;20458;-62
2021/01/08 04:28:42;;;;;;;18.02;9.40;;;1.60;99.90;;;;;;5066345;28;20028;-62
2021/01/08 04:31:07;;;;;;;21.08;9.30;;;1.60;99.90;;;;;;5065211;28;20469;-62
2021/01/08 04:33:33;;;;;;;16.60;8.00;;;1.60;99.90;;;;;;5064520;28;20107;-62
2021/01/08 04:35:59;;;;;;;18.67;9.40;;;1.60;99.90;;;;;;5066826;28;20500;-62
2021/01/08 04:38:25;;;;;;;15.27;8.98;;;1.60;99.90;;;;;;5067133;28;20101;-62
2021/01/08 04:40:51;;;;;;;18.55;9.25;;;1.60;99.90;;;;;;5065778;28;20035;-62
2021/01/08 04:43:17;;;;;;;17.65;9.48;;;1.50;99.90;;;;;;5065519;28;20075;-62
2021/01/08 04:45:43;;;;;;;21.30;9.13;;;1.50;99.90;;;;;;5063549;28;20028;-62
2021/01/08 04:48:11;;;;;;;16.15;8.68;;;1.50;99.90;;;;;;5065668;28;20127;-62
2021/01/08 04:50:37;;;;;;;19.15;9.93;;;1.50;99.90;;;;;;5063858;28;20083;-62
2021/01/08 04:53:03;;;;;;;14.80;8.55;;;1.60;99.90;;;;;;5062833;28;20031;-62
2021/01/08 04:55:29;;;;;;;16.15;8.63;;;1.50;99.90;;;;;;5064545;28;20036;-62
2021/01/08 04:57:57;;;;;;;15.75;8.20;;;1.50;99.90;;;;;;5062761;28;20020;-62
2021/01/08 05:00:24;;;;;;;14.75;8.05;;;1.50;99.90;;;;;;5064829;28;20470;-62
2021/01/08 05:02:51;;;;;;;15.82;8.80;;;1.50;99.90;;;;;;5062957;28;20106;-62
2021/01/08 05:05:19;;;;;;;16.02;7.72;;;1.50;99.90;;;;;;5064664;28;20028;-62
2021/01/08 05:07:45;;;;;;;18.58;9.05;;;1.50;99.90;;;;;;5066576;28;20028;-62
2021/01/08 05:10:11;;;;;;;14.02;7.75;;;1.50;99.90;;;;;;5064141;28;20158;-62
2021/01/08 05:12:41;;;;;;;15.38;8.38;;;1.50;99.90;;;;;;5062777;28;20503;-63
2021/01/08 05:15:14;;;;;;;17.88;8.90;;;1.50;99.90;;;;;;5065500;28;20450;-62
2021/01/08 05:17:41;;;;;;;17.55;8.75;;;1.40;99.90;;;;;;5062206;28;20443;-62
2021/01/08 05:20:09;;;;;;;17.05;9.20;;;1.50;99.90;;;;;;5061522;28;20604;-62
2021/01/08 05:22:36;;;;;;;16.58;8.07;;;1.50;99.90;;;;;;5057338;28;20052;-70
2021/01/08 05:25:07;;;;;;;15.23;8.50;;;1.50;99.90;;;;;;5064458;28;20032;-75
2021/01/08 05:27:33;;;;;;;12.50;7.43;;;1.50;99.90;;;;;;5062131;28;20029;-75
2021/01/08 05:30:23;;;;;;;17.83;8.20;;;1.60;99.90;;;;;;5061341;28;20044;-76
2021/01/08 05:33:00;;;;;;;16.80;8.48;;;1.50;99.90;;;;;;5062467;28;20449;-75
2021/01/08 05:35:28;;;;;;;13.43;7.50;;;1.50;99.90;;;;;;5065145;28;20498;-75
2021/01/08 05:37:55;;;;;;;14.20;8.10;;;1.40;99.90;;;;;;5065885;28;20035;-76
2021/01/08 05:40:27;;;;;;;13.45;8.25;;;1.40;99.90;;;;;;5064800;28;20041;-76
2021/01/08 05:42:53;;;;;;;17.17;9.05;;;1.40;99.90;;;;;;5062721;28;20024;-76
2021/01/08 05:45:20;;;;;;;15.13;8.35;;;1.30;99.90;;;;;;5064229;28;20021;-76
2021/01/08 05:47:49;;;;;;;16.60;7.88;;;1.30;99.90;;;;;;5068440;28;20119;-75
2021/01/08 05:50:17;;;;;;;17.30;9.23;;;1.40;99.90;;;;;;5065288;28;20051;-75
2021/01/08 05:52:46;;;;;;;16.65;9.63;;;1.30;99.90;;;;;;5065064;28;20040;-75
2021/01/08 05:55:13;;;;;;;17.67;9.25;;;1.30;99.90;;;;;;5035984;28;20434;-75
2021/01/08 05:57:41;;;;;;;15.18;9.00;;;1.40;99.90;;;;;;5067942;28;20032;-75
2021/01/08 06:00:08;;;;;;;15.52;9.35;;;1.30;99.90;;;;;;5065958;28;20780;-76
2021/01/08 06:02:35;;;;;;;18.45;9.48;;;1.30;99.90;;;;;;5066910;28;20070;-76
2021/01/08 06:05:04;;;;;;;16.00;9.45;;;1.20;99.90;;;;;;5064895;28;20034;-76
2021/01/08 06:07:35;;;;;;;15.77;9.77;;;1.20;99.90;;;;;;5066021;28;20032;-75
2021/01/08 06:10:03;;;;;;;16.95;8.75;;;1.20;99.90;;;;;;5068577;28;20492;-76
2021/01/08 06:12:38;;;;;;;19.38;9.70;;;1.20;99.90;;;;;;5068977;28;20093;-76
2021/01/08 06:15:14;;;;;;;15.88;9.27;;;1.20;99.90;;;;;;5066715;28;20065;-76
2021/01/08 06:17:46;;;;;;;17.83;9.48;;;1.30;99.90;;;;;;5068032;28;20577;-76
2021/01/08 06:20:13;;;;;;;20.33;11.13;;;1.20;99.90;;;;;;5068519;28;20075;-76
2021/01/08 06:22:40;;;;;;;16.02;8.82;;;1.30;99.90;;;;;;5067678;28;20580;-76
2021/01/08 06:25:08;;;;;;;17.05;10.10;;;1.30;99.90;;;;;;5070815;28;20068;-76
2021/01/08 06:27:35;;;;;;;16.38;9.13;;;1.30;99.90;;;;;;5071974;28;20056;-76
2021/01/08 06:30:05;;;;;;;16.70;8.73;;;1.30;99.90;;;;;;5073510;28;20024;-76
2021/01/08 06:32:32;;;;;;;16.05;9.55;;;1.30;99.90;;;;;;5052790;28;20446;-76
2021/01/08 06:35:06;;;;;;;18.13;9.20;;;1.30;99.90;;;;;;5072066;28;20081;-76
2021/01/08 06:37:42;;;;;;;14.75;8.65;;;1.30;99.90;;;;;;5071993;28;20033;-76
2021/01/08 06:40:13;;;;;;;15.23;7.97;;;1.30;99.90;;;;;;5069680;28;20139;-76
2021/01/08 06:42:51;;;;;;;17.13;9.00;;;1.30;99.90;;;;;;5050676;28;20503;-76
2021/01/08 06:45:18;;;;;;;17.00;8.68;;;1.30;99.90;;;;;;5071659;28;20037;-76
2021/01/08 06:47:46;;;;;;;15.05;7.80;;;1.20;99.90;;;;;;5070390;28;20063;-76
2021/01/08 06:50:17;;;;;;;15.82;8.38;;;1.20;99.90;;;;;;5070420;28;20479;-76
2021/01/08 06:52:46;;;;;;;14.10;7.80;;;1.20;99.90;;;;;;5071693;28;20020;-76
2021/01/08 06:55:22;;;;;;;17.35;8.13;;;1.20;99.90;;;;;;5053617;28;20899;-76
2021/01/08 06:57:50;;;;;;;15.07;7.97;;;1.20;99.90;;;;;;5071329;28;20024;-76
2021/01/08 07:00:21;;;;;;;15.48;8.35;;;1.20;99.90;;;;;;5070650;28;20531;-75
2021/01/08 07:02:51;;;;;;;12.75;7.72;;;1.20;99.90;;;;;;5069963;28;20125;-76
2021/01/08 07:05:18;;;;;;;16.38;8.13;;;1.20;99.90;;;;;;5071548;28;20036;-76
2021/01/08 07:07:45;;;;;;;13.13;7.45;;;1.30;99.90;;;;;;5070813;28;20424;-76
2021/01/08 07:10:15;;;;;;;12.27;7.40;;;1.10;99.90;;;;;;5070242;28;20426;-76
2021/01/08 07:12:42;;;;;;;13.48;7.30;;;1.10;99.90;;;;;;5070236;28;20051;-76
2021/01/08 07:15:10;;;;;;;14.82;7.43;;;1.20;99.90;;;;;;5072016;28;20039;-76
2021/01/08 07:17:38;;;;;;;13.77;8.30;;;1.10;99.90;;;;;;5070734;28;20067;-76
2021/01/08 07:20:05;;;;;;;14.45;8.10;;;1.10;99.90;;;;;;5070721;28;20063;-76
2021/01/08 07:22:41;;;;;;;13.60;7.75;;;1.10;99.90;;;;;;5069857;28;20240;-76
2021/01/08 07:25:11;;;;;;;12.65;7.05;;;1.10;99.90;;;;;;5070543;28;20143;-76
2021/01/08 07:27:40;;;;;;;15.32;7.80;;;1.10;99.90;;;;;;5071638;28;20427;-76
2021/01/08 07:30:08;;;;;;;12.98;7.20;;;1.10;99.90;;;;;;5070088;28;20501;-76
2021/01/08 07:32:48;;;;;;;14.45;6.97;;;1.00;99.90;;;;;;5035939;28;20388;-76
2021/01/08 07:35:22;;;;;;;18.30;8.13;;;1.00;99.90;;;;;;5070566;28;20036;-75
2021/01/08 07:38:06;;;;;;;12.63;7.55;;;1.00;99.90;;;;;;5069898;28;20032;-75
2021/01/08 07:40:50;;;;;;;18.67;8.38;;;1.00;99.90;;;;;;5048606;28;618408;-76
2021/01/08 07:43:16;;;;;;;14.07;7.93;;;0.90;99.90;;;;;;5071406;28;20029;-76
2021/01/08 07:45:59;;;;;;;15.32;9.50;;;0.90;99.90;;;;;;5070697;28;20082;-76
2021/01/08 07:48:34;;;;;;;14.35;8.68;;;0.90;99.90;;;;;;5071858;28;20453;-75
2021/01/08 07:51:08;;;;;;;12.50;7.85;;;0.80;99.90;;;;;;5072172;28;20043;-75
2021/01/08 07:53:47;;;;;;;15.85;8.10;;;0.80;99.90;;;;;;5070416;28;20024;-76
2021/01/08 07:56:22;;;;;;;17.00;8.25;;;0.80;99.90;;;;;;5070772;28;20040;-76
2021/01/08 07:58:58;;;;;;;16.70;8.63;;;0.70;99.90;;;;;;5070141;28;20618;-76
2021/01/08 08:01:24;;;;;;;13.45;7.95;;;0.80;99.90;;;;;;5053203;28;20115;-76
2021/01/08 08:04:09;;;;;;;13.90;7.28;;;0.70;99.90;;;;;;5070260;28;20032;-76
2021/01/08 08:06:37;;;;;;;16.30;8.23;;;0.80;99.90;;;;;;5071729;28;20395;-76
2021/01/08 08:09:06;;;;;;;14.48;8.02;;;0.70;99.90;;;;;;5069051;28;20026;-76
2021/01/08 08:11:35;;;;;;;16.77;8.65;;;0.80;99.90;;;;;;5069520;28;20043;-76
2021/01/08 08:14:01;;;;;;;16.70;9.15;;;0.70;99.90;;;;;;5070735;28;20056;-75
2021/01/08 08:16:37;;;;;;;17.05;9.90;;;0.70;99.90;;;;;;5069981;28;20612;-76
2021/01/08 08:19:04;;;;;;;17.55;9.45;;;0.70;99.90;;;;;;5050824;28;20039;-76
2021/01/08 08:21:30;;;;;;;17.73;9.90;;;0.80;99.90;;;;;;5070372;28;20052;-75
2021/01/08 08:23:57;;;;;;;16.95;9.60;;;0.70;99.90;;;;;;5068805;28;20056;-76
2021/01/08 08:26:24;;;;;;;17.23;9.70;;;0.70;99.90;;;;;;5069829;28;20460;-76
2021/01/08 08:28:58;;;;;;;16.15;9.48;;;0.70;99.90;;;;;;5069797;28;20021;-75
2021/01/08 08:31:29;;;;;;;19.27;10.50;;;0.70;99.90;;;;;;5069524;28;20443;-75
2021/01/08 08:33:57;;;;;;;16.80;9.55;;;0.70;99.90;;;;;;5069080;28;20026;-75
2021/01/08 08:36:27;;;;;;;15.93;8.75;;;0.80;99.90;;;;;;5069574;28;20477;-75
2021/01/08 08:39:15;;;;;;;16.50;9.52;;;0.80;99.90;;;;;;5067857;28;20039;-75
2021/01/08 08:41:46;;;;;;;15.38;7.82;;;0.80;99.90;;;;;;5069037;28;20538;-76
2021/01/08 08:44:16;;;;;;;15.10;8.55;;;0.80;99.90;;;;;;5066351;28;20126;-75
2021/01/08 08:46:52;;;;;;;14.65;7.72;;;0.80;99.90;;;;;;5069405;28;20058;-75
2021/01/08 08:49:24;;;;;;;14.93;7.82;;;0.90;99.90;;;;;;5068463;28;20026;-75
2021/01/08 08:51:52;;;;;;;15.30;7.68;;;0.90;99.90;;;;;;5068704;28;20044;-75
2021/01/08 08:54:19;;;;;;;12.15;6.72;;;0.90;99.90;;;;;;5068967;28;20123;-75
2021/01/08 08:56:52;;;;;;;12.32;7.05;;;0.90;99.90;;;;;;5068216;28;20032;-75
2021/01/08 08:59:40;;;;;;;13.35;7.38;;;1.00;99.90;;;;;;5068660;28;20111;-75
2021/01/08 09:02:15;;;;;;;11.70;6.65;;;1.10;99.90;;;;;;5067385;28;20504;-75
2021/01/08 09:05:00;;;;;;;11.38;6.50;;;1.10;99.90;;;;;;5067883;28;20060;-75
2021/01/08 09:07:45;;;;;;;12.60;6.13;;;1.10;99.90;;;;;;5068238;28;20036;-75
2021/01/08 09:10:36;;;;;;;9.80;5.22;;;1.20;99.90;;;;;;5049195;28;20067;-75
2021/01/08 09:13:18;;;;;;;10.98;5.45;;;1.30;99.90;;;;;;5066985;28;20040;-75
2021/01/08 09:16:02;;;;;;;10.15;5.90;;;1.30;99.90;;;;;;5068314;28;20537;-75
2021/01/08 09:18:37;;;;;;;9.85;5.85;;;1.40;99.90;;;;;;5070024;28;20035;-75
2021/01/08 09:21:26;;;;;;;11.95;5.93;;;1.40;99.90;;;;;;5066571;28;20558;-75
2021/01/08 09:23:53;;;;;;;14.85;7.10;;;1.40;99.90;;;;;;5066606;28;20024;-75
2021/01/08 09:26:20;;;;;;;9.48;5.43;;;1.60;99.90;;;;;;5069557;28;20109;-75
2021/01/08 09:28:51;;;;;;;10.90;5.47;;;1.60;99.90;;;;;;5069956;28;20032;-76
2021/01/08 09:31:17;;;;;;;9.73;5.53;;;1.70;99.90;;;;;;5071699;28;20040;-75
2021/01/08 09:33:59;;;;;;;9.27;5.07;;;1.80;99.90;;;;;;5071882;28;20027;-75
2021/01/08 09:36:38;;;;;;;10.27;6.38;;;1.90;99.90;;;;;;5071295;28;20033;-76
2021/01/08 09:39:09;;;;;;;13.10;6.30;;;2.00;99.90;;;;;;5072482;28;20037;-76
2021/01/08 09:41:37;;;;;;;10.75;5.75;;;2.00;99.90;;;;;;5070083;28;20634;-75
2021/01/08 09:44:06;;;;;;;10.05;5.10;;;2.10;99.90;;;;;;5067129;28;20449;-75
2021/01/08 09:46:48;;;;;;;10.20;5.28;;;2.10;99.90;;;;;;5067828;28;20058;-76
2021/01/08 09:49:14;;;;;;;10.73;5.13;;;2.20;99.90;;;;;;5050322;28;20653;-76
2021/01/08 09:51:40;;;;;;;10.40;4.80;;;2.20;99.90;;;;;;5048644;28;20039;-75
2021/01/08 09:54:06;;;;;;;10.18;4.90;;;2.30;99.90;;;;;;5066022;28;20028;-75
2021/01/08 09:56:32;;;;;;;9.68;4.75;;;2.50;99.90;;;;;;5067458;28;20029;-76
2021/01/08 09:59:17;;;;;;;10.02;4.85;;;2.80;99.90;;;;;;5067289;28;20072;-76
2021/01/08 10:01:52;;;;;;;10.82;5.90;;;3.10;99.90;;;;;;5064963;28;20530;-75
2021/01/08 10:04:34;;;;;;;11.85;6.63;;;3.00;99.90;;;;;;5066659;28;20025;-76
2021/01/08 10:07:03;;;;;;;10.63;6.05;;;2.80;99.90;;;;;;5068899;28;20374;-75
2021/01/08 10:09:49;;;;;;;10.35;6.00;;;2.60;99.90;;;;;;5067451;28;20139;-75
2021/01/08 10:12:17;;;;;;;11.32;5.93;;;2.60;99.90;;;;;;5060913;28;20048;-75
2021/01/08 10:14:43;;;;;;;10.65;5.18;;;2.40;99.90;;;;;;5066125;28;20472;-76
2021/01/08 10:17:13;;;;;;;9.88;4.65;;;2.40;99.90;;;;;;5067636;28;20119;-76
2021/01/08 10:19:39;;;;;;;;;;;2.10;99.90;;;;;;5068091;28;20020;-75
2021/01/08 10:22:05;;;;;;;9.25;4.65;;;2.00;99.90;;;;;;5066767;28;20293;-76
2021/01/08 10:24:31;;;;;;;8.40;4.43;;;1.90;99.90;;;;;;5066097;28;20104;-76
2021/01/08 10:26:57;;;;;;;9.10;4.57;;;1.70;99.90;;;;;;5067049;28;20032;-76
2021/01/08 10:29:36;;;;;;;8.48;4.75;;;1.50;99.90;;;;;;5067325;28;20028;-76
2021/01/08 10:32:10;;;;;;;8.85;5.20;;;1.50;99.90;;;;;;5066577;28;20045;-76
2021/01/08 10:34:44;;;;;;;9.07;5.32;;;1.40;99.90;;;;;;5070999;28;20703;-76
2021/01/08 10:37:17;;;;;;;10.23;5.32;;;1.50;99.90;;;;;;5070970;28;20119;-76
2021/01/08 10:39:43;;;;;;;9.32;4.72;;;1.50;99.90;;;;;;5070781;28;20184;-76
2021/01/08 10:42:10;;;;;;;8.15;5.13;;;1.60;99.90;;;;;;5070096;28;20106;-76
2021/01/08 10:44:39;;;;;;;11.82;4.78;;;1.60;99.90;;;;;;5069018;28;20026;-75
2021/01/08 10:47:06;;;;;;;7.63;4.70;;;1.60;99.90;;;;;;5069977;28;20052;-76
2021/01/08 10:49:32;;;;;;;9.90;4.45;;;1.50;99.90;;;;;;5070970;28;20039;-76
2021/01/08 10:51:58;;;;;;;8.20;4.65;;;1.60;99.90;;;;;;5071143;28;20391;-76
2021/01/08 10:54:24;;;;;;;8.90;5.00;;;1.60;99.90;;;;;;5070505;28;20461;-76
2021/01/08 10:56:50;;;;;;;7.97;5.07;;;1.60;99.90;;;;;;5070673;28;20032;-75
2021/01/08 10:59:16;;;;;;;8.45;4.65;;;1.80;99.90;;;;;;5070726;28;20035;-76
2021/01/08 11:01:45;;;;;;;11.27;5.05;;;1.90;99.90;;;;;;5069978;28;20032;-76
2021/01/08 11:04:11;;;;;;;9.70;4.63;;;2.00;99.90;;;;;;5070952;28;20028;-76
2021/01/08 11:06:41;;;;;;;9.30;4.90;;;2.10;99.90;;;;;;5070803;28;20110;-75
2021/01/08 11:09:07;;;;;;;11.68;5.10;;;2.00;99.90;;;;;;5070782;28;20020;-76
2021/01/08 11:11:34;;;;;;;10.05;5.18;;;1.90;99.90;;;;;;5070931;28;20367;-76
2021/01/08 11:14:01;;;;;;;10.35;5.68;;;1.90;99.90;;;;;;5069945;28;20024;-76
2021/01/08 11:16:27;;;;;;;9.10;4.85;;;1.90;99.90;;;;;;5071332;28;20028;-76
2021/01/08 11:18:53;;;;;;;13.68;5.22;;;1.90;99.90;;;;;;5072350;28;20497;-76
2021/01/08 11:21:20;;;;;;;7.93;4.68;;;2.00;99.90;;;;;;5070382;28;20032;-76
2021/01/08 11:23:48;;;;;;;10.27;5.28;;;2.00;99.90;;;;;;5069507;28;20414;-76
2021/01/08 11:26:27;;;;;;;12.07;4.72;;;2.10;99.90;;;;;;5071181;28;20433;-76
2021/01/08 11:28:53;;;;;;;8.75;4.47;;;2.10;99.90;;;;;;5070727;28;20096;-76
2021/01/08 11:31:19;;;;;;;8.23;5.25;;;2.00;99.90;;;;;;5071799;28;20387;-76
2021/01/08 11:33:46;;;;;;;10.10;5.18;;;2.10;99.90;;;;;;5071285;28;20016;-76
2021/01/08 11:36:17;;;;;;;8.88;4.25;;;2.10;99.90;;;;;;5071661;28;20631;-76
2021/01/08 11:38:43;;;;;;;7.88;5.10;;;2.00;99.90;;;;;;5071128;28;20028;-75
2021/01/08 11:41:10;;;;;;;10.23;5.05;;;2.00;99.90;;;;;;5071692;28;20050;-76
2021/01/08 11:43:36;;;;;;;7.53;4.55;;;1.90;99.90;;;;;;5070555;28;20485;-76
2021/01/08 11:46:02;;;;;;;8.30;4.90;;;2.10;99.90;;;;;;5070878;28;20072;-76
2021/01/08 11:48:28;;;;;;;5.60;3.70;;;2.10;99.90;;;;;;5070421;28;20429;-76
2021/01/08 11:50:53;;;;;;;9.00;5.25;;;2.20;99.90;;;;;;5071065;28;20398;-75
2021/01/08 11:53:19;;;;;;;7.80;4.93;;;2.30;99.90;;;;;;5070856;28;20121;-76
2021/01/08 11:55:45;;;;;;;8.15;4.80;;;2.30;99.90;;;;;;5070671;28;20062;-76
2021/01/08 11:58:11;;;;;;;6.68;4.07;;;2.40;99.90;;;;;;5071136;28;20549;-76
2021/01/08 12:00:36;;;;;;;6.88;4.13;;;2.40;99.90;;;;;;5071280;28;20501;-76
2021/01/08 12:03:02;;;;;;;6.28;3.88;;;2.40;99.90;;;;;;5068802;28;20028;-76
2021/01/08 12:05:28;;;;;;;7.85;4.35;;;2.40;99.90;;;;;;5070457;28;20667;-76
2021/01/08 12:07:54;;;;;;;6.10;3.50;;;2.50;99.90;;;;;;5070586;28;20134;-76
2021/01/08 12:10:20;;;;;;;8.25;4.25;;;2.90;99.90;;;;;;5069614;28;20036;-76
2021/01/08 12:12:49;;;;;;;7.30;3.85;;;3.40;99.90;;;;;;5069498;28;20043;-76
2021/01/08 12:15:15;;;;;;;8.35;4.72;;;4.20;99.90;;;;;;5070515;28;20623;-76
2021/01/08 12:17:41;;;;;;;6.82;4.10;;;4.70;99.90;;;;;;5070414;28;20032;-76
2021/01/08 12:20:09;;;;;;;8.65;4.28;;;4.60;99.90;;;;;;5070682;28;20055;-75
2021/01/08 12:22:35;;;;;;;6.15;4.07;;;4.40;99.90;;;;;;5068296;28;20028;-76
2021/01/08 12:25:02;;;;;;;8.85;4.75;;;4.30;99.90;;;;;;5070145;28;20520;-76
2021/01/08 12:27:28;;;;;;;6.03;3.70;;;4.20;99.90;;;;;;5070406;28;20111;-76
2021/01/08 12:29:53;;;;;;;7.13;4.35;;;4.10;99.90;;;;;;5070345;28;20024;-76
2021/01/08 12:32:19;;;;;;;5.72;4.00;;;4.20;99.90;;;;;;5067927;28;20577;-76
2021/01/08 12:34:45;;;;;;;7.03;4.03;;;4.40;99.90;;;;;;5070913;28;20439;-76
2021/01/08 12:37:11;;;;;;;6.10;3.78;;;4.50;99.90;;;;;;5068876;28;20032;-76
2021/01/08 12:39:37;;;;;;;8.45;4.22;;;4.40;99.90;;;;;;5069729;28;20063;-76
2021/01/08 12:42:04;;;;;;;7.25;4.60;;;4.10;99.90;;;;;;5069338;28;20111;-76
2021/01/08 12:44:30;;;;;;;6.88;4.35;;;4.00;99.90;;;;;;5070363;28;20082;-76
2021/01/08 12:47:02;;;;;;;6.20;4.20;;;3.80;99.90;;;;;;5049563;28;20387;-76
2021/01/08 12:49:28;;;;;;;6.93;4.28;;;3.70;99.90;;;;;;5070092;28;20025;-76
2021/01/08 12:51:54;;;;;;;7.85;4.53;;;3.50;99.90;;;;;;5070508;28;20036;-76
2021/01/08 12:54:19;;;;;;;8.38;4.63;;;3.20;99.90;;;;;;5071345;28;20020;-76